^^
Your Local Weather - Clay, NY Station Historical Data
Daily Summary for October 29, 2017 Units:  English    Metric   Both
« Previous Day
Next Day »
Daily Weekly Monthly Yearly Custom
  High: Low: Average:
Temperature: 47.5 °F 42.4 °F 45.5 °F
Dew Point: 46.1 °F 40.5 °F 43.7 °F
Humidity: 95% 91% 93%
Wind Speed: 4.0mph 0.0mph 1.2mph
Wind Gust: 9.0mph - -
Wind- - WNW
Pressure: 29.83 in 29.19 in -
Precipitation: 1.84 in    
Historical Graphs
 
 
Tabular Data for October 29, 2017
Time Temperature Dew Point Pressure Wind Wind Speed Wind Gust Humidity Rainfall Rate (Hourly) solar
00:04 47.4 °F 44.9 °F 29.83 in Calm     91% 0.00 in 0 W/m2
00:10 47.4 °F 44.9 °F 29.83 in Calm     91% 0.00 in 0 W/m2
00:16 47.3 °F 44.8 °F 29.83 in Calm     91% 0.00 in 0 W/m2
00:28 47.2 °F 44.7 °F 29.83 in Calm     91% 0.00 in 0 W/m2
00:34 47.2 °F 44.7 °F 29.83 in Calm     91% 0.00 in 0 W/m2
00:40 47.1 °F 44.9 °F 29.83 in Calm     92% 0.00 in 0 W/m2
00:46 47.1 °F 44.9 °F 29.83 in Calm     92% 0.00 in 0 W/m2
00:52 47.1 °F 44.9 °F 29.83 in Calm     92% 0.00 in 0 W/m2
00:58 47.1 °F 44.9 °F 29.83 in Calm     92% 0.00 in 0 W/m2
01:04 47.1 °F 44.9 °F 29.83 in Calm     92% 0.00 in 0 W/m2
01:10 47.1 °F 44.9 °F 29.83 in Calm     92% 0.00 in 0 W/m2
01:16 47.1 °F 44.9 °F 29.82 in Calm     92% 0.00 in 0 W/m2
01:22 47.1 °F 44.9 °F 29.82 in Calm     92% 0.00 in 0 W/m2
01:28 47.0 °F 44.8 °F 29.82 in Calm     92% 0.00 in 0 W/m2
01:34 47.0 °F 44.8 °F 29.82 in Calm     92% 0.00 in 0 W/m2
01:40 47.0 °F 44.8 °F 29.83 in Calm     92% 0.00 in 0 W/m2
01:46 47.0 °F 44.8 °F 29.83 in Calm   1.0 mph 92% 0.00 in 0 W/m2
01:52 47.0 °F 44.8 °F 29.82 in Calm     92% 0.00 in 0 W/m2
01:58 47.0 °F 44.8 °F 29.83 in Calm     92% 0.00 in 0 W/m2
02:04 46.9 °F 44.7 °F 29.83 in Calm     92% 0.00 in 0 W/m2
02:10 46.9 °F 44.7 °F 29.83 in Calm     92% 0.00 in 0 W/m2
02:16 46.8 °F 44.6 °F 29.83 in Calm     92% 0.00 in 0 W/m2
02:22 46.9 °F 44.7 °F 29.83 in Calm     92% 0.00 in 0 W/m2
02:28 46.8 °F 44.6 °F 29.82 in Calm     92% 0.00 in 0 W/m2
02:34 46.7 °F 44.5 °F 29.82 in Calm     92% 0.00 in 0 W/m2
02:40 46.7 °F 44.5 °F 29.82 in Calm     92% 0.00 in 0 W/m2
02:46 46.7 °F 44.8 °F 29.82 in Calm     93% 0.00 in 0 W/m2
02:52 46.7 °F 44.8 °F 29.82 in Calm     93% 0.00 in 0 W/m2
02:58 46.7 °F 44.5 °F 29.81 in Calm     92% 0.00 in 0 W/m2
03:04 46.7 °F 44.5 °F 29.81 in Calm     92% 0.00 in 0 W/m2
03:10 46.7 °F 44.5 °F 29.81 in Calm     92% 0.00 in 0 W/m2
03:16 46.7 °F 44.8 °F 29.81 in Calm   1.0 mph 93% 0.00 in 0 W/m2
03:22 46.6 °F 44.7 °F 29.81 in Calm     93% 0.00 in 0 W/m2
03:28 46.6 °F 44.7 °F 29.80 in Calm     93% 0.00 in 0 W/m2
03:34 46.6 °F 44.7 °F 29.80 in Calm     93% 0.00 in 0 W/m2
03:40 46.5 °F 44.6 °F 29.80 in Calm     93% 0.00 in 0 W/m2
03:46 46.6 °F 44.7 °F 29.80 in NNW 1.0 mph 4.0 mph 93% 0.00 in 0 W/m2
03:52 46.7 °F 44.8 °F 29.80 in NNW 1.0 mph 1.0 mph 93% 0.00 in 0 W/m2
03:58 46.7 °F 44.8 °F 29.80 in NNW 2.0 mph 3.0 mph 93% 0.00 in 0 W/m2
04:04 46.6 °F 44.7 °F 29.79 in North 3.0 mph 4.0 mph 93% 0.00 in 0 W/m2
04:10 46.6 °F 44.7 °F 29.79 in North 3.0 mph 3.0 mph 93% 0.00 in 0 W/m2
04:16 46.5 °F 44.6 °F 29.80 in North 3.0 mph 6.0 mph 93% 0.00 in 0 W/m2
04:22 46.3 °F 44.4 °F 29.80 in North 3.0 mph 4.0 mph 93% 0.00 in 0 W/m2
04:28 46.2 °F 44.3 °F 29.80 in North 2.0 mph 5.0 mph 93% 0.04 in 0 W/m2
04:34 46.1 °F 44.2 °F 29.80 in NNE 3.0 mph 3.0 mph 93% 0.07 in 0 W/m2
04:40 45.8 °F 43.9 °F 29.79 in North 3.0 mph 3.0 mph 93% 0.07 in 0 W/m2
04:46 45.6 °F 43.7 °F 29.78 in North 3.0 mph 7.0 mph 93% 0.06 in 0 W/m2
04:52 45.5 °F 43.6 °F 29.79 in North 3.0 mph 4.0 mph 93% 0.10 in 0 W/m2
04:58 45.4 °F 43.5 °F 29.78 in NE 3.0 mph 5.0 mph 93% 0.08 in 0 W/m2
05:04 45.4 °F 43.5 °F 29.78 in North 2.0 mph 4.0 mph 93% 0.10 in 0 W/m2
05:10 45.3 °F 43.1 °F 29.78 in NNE 2.0 mph 2.0 mph 92% 0.07 in 0 W/m2
05:16 45.3 °F 43.1 °F 29.77 in North 1.0 mph 4.0 mph 92% 0.04 in 0 W/m2
05:22 45.3 °F 43.4 °F 29.77 in North 1.0 mph 5.0 mph 93% 0.04 in 0 W/m2
05:28 45.3 °F 43.4 °F 29.77 in NNW 2.0 mph 5.0 mph 93% 0.04 in 0 W/m2
05:34 45.2 °F 43.3 °F 29.77 in North 2.0 mph 3.0 mph 93% 0.04 in 0 W/m2
05:40 45.1 °F 43.2 °F 29.77 in NNW 3.0 mph 9.0 mph 93% 0.04 in 0 W/m2
05:46 45.0 °F 43.1 °F 29.77 in ENE 4.0 mph 9.0 mph 93% 0.05 in 0 W/m2
05:52 44.9 °F 43.0 °F 29.77 in NNW 4.0 mph 4.0 mph 93% 0.05 in 0 W/m2
05:58 44.7 °F 42.8 °F 29.77 in North 3.0 mph 4.0 mph 93% 0.06 in 0 W/m2
06:04 44.7 °F 42.5 °F 29.77 in NNE 2.0 mph 6.0 mph 92% 0.06 in 0 W/m2
06:10 44.6 °F 42.4 °F 29.77 in NNW 2.0 mph 3.0 mph 92% 0.10 in 0 W/m2
06:16 44.5 °F 42.3 °F 29.77 in NNW 3.0 mph 4.0 mph 92% 0.09 in 0 W/m2
06:22 44.5 °F 42.6 °F 29.77 in NNW 2.0 mph 2.0 mph 93% 0.07 in 0 W/m2
06:28 44.4 °F 42.5 °F 29.78 in North 2.0 mph 2.0 mph 93% 0.10 in 0 W/m2
06:34 44.4 °F 42.5 °F 29.78 in NW 1.0 mph 2.0 mph 93% 0.08 in 0 W/m2
06:40 44.3 °F 42.4 °F 29.77 in NW 1.0 mph 3.0 mph 93% 0.14 in 0 W/m2
06:46 44.2 °F 42.0 °F 29.77 in NNW 2.0 mph 8.0 mph 92% 0.20 in 0 W/m2
06:52 44.2 °F 42.3 °F 29.76 in North 3.0 mph 3.0 mph 93% 0.13 in 0 W/m2
06:58 44.1 °F 42.2 °F 29.75 in North 3.0 mph 4.0 mph 93% 0.13 in 0 W/m2
07:04 44.0 °F 42.1 °F 29.77 in NW 3.0 mph 3.0 mph 93% 0.24 in 0 W/m2
07:10 43.9 °F 42.0 °F 29.75 in NNW 2.0 mph 4.0 mph 93% 0.49 in 0 W/m2
07:16 43.8 °F 41.9 °F 29.76 in NW 2.0 mph 4.0 mph 93% 0.40 in 0 W/m2
07:22 43.6 °F 41.7 °F 29.76 in NW 2.0 mph 3.0 mph 93% 0.57 in 0 W/m2
07:28 43.5 °F 41.6 °F 29.75 in NNW 3.0 mph 4.0 mph 93% 0.22 in 0 W/m2
07:34 43.4 °F 41.5 °F 29.75 in NNW 3.0 mph 5.0 mph 93% 0.23 in 0 W/m2
07:40 43.3 °F 41.4 °F 29.75 in North 4.0 mph 4.0 mph 93% 0.20 in 0 W/m2
07:46 43.2 °F 41.3 °F 29.75 in North 4.0 mph 5.0 mph 93% 0.19 in 0 W/m2
07:52 43.1 °F 41.2 °F 29.75 in NNE 3.0 mph 5.0 mph 93% 0.18 in 0 W/m2
07:58 42.9 °F 41.0 °F 29.75 in North 4.0 mph 5.0 mph 93% 0.16 in 0 W/m2
08:04 42.9 °F 41.0 °F 29.74 in North 4.0 mph 4.0 mph 93% 0.12 in 0 W/m2
08:10 42.7 °F 40.8 °F 29.75 in NNW 3.0 mph 3.0 mph 93% 0.16 in 0 W/m2
08:16 42.7 °F 40.8 °F 29.76 in North 2.0 mph 3.0 mph 93% 0.12 in 0 W/m2
08:22 42.6 °F 40.7 °F 29.76 in North 1.0 mph 3.0 mph 93% 0.14 in 5 W/m2
08:28 42.5 °F 40.6 °F 29.75 in North 2.0 mph 3.0 mph 93% 0.13 in 5 W/m2
08:34 42.4 °F 40.5 °F 29.75 in North 2.0 mph 4.0 mph 93% 0.16 in 5 W/m2
08:40 42.4 °F 40.5 °F 29.75 in NW 2.0 mph 4.0 mph 93% 0.17 in 7 W/m2
08:46 42.4 °F 40.5 °F 29.75 in NNE 2.0 mph 4.0 mph 93% 0.10 in 9 W/m2
08:52 42.4 °F 40.5 °F 29.74 in NNW 3.0 mph 3.0 mph 93% 0.07 in 12 W/m2
08:58 42.4 °F 40.5 °F 29.74 in NNE 3.0 mph 6.0 mph 93% 0.05 in 12 W/m2
09:04 42.5 °F 40.6 °F 29.74 in NNE 2.0 mph 3.0 mph 93% 0.08 in 12 W/m2
09:10 42.5 °F 40.6 °F 29.74 in WNW 2.0 mph 3.0 mph 93% 0.19 in 14 W/m2
09:16 42.5 °F 40.6 °F 29.74 in WNW 1.0 mph 3.0 mph 93% 0.14 in 21 W/m2
09:50 42.7 °F 40.8 °F 29.73 in North 2.0 mph 3.0 mph 93% 0.18 in 23 W/m2
09:56 42.7 °F 40.8 °F 29.72 in NW 3.0 mph 6.0 mph 93% 0.13 in 25 W/m2
10:02 42.7 °F 40.8 °F 29.72 in North 4.0 mph 5.0 mph 93% 0.07 in 28 W/m2
10:08 42.7 °F 40.8 °F 29.72 in WNW 2.0 mph 5.0 mph 93% 0.04 in 37 W/m2
10:14 42.9 °F 41.0 °F 29.72 in North 2.0 mph 2.0 mph 93% 0.04 in 33 W/m2
10:20 42.9 °F 41.0 °F 29.72 in NW 1.0 mph 3.0 mph 93% 0.06 in 33 W/m2
10:26 43.0 °F 41.1 °F 29.72 in NW 1.0 mph 3.0 mph 93% 0.06 in 25 W/m2
10:32 43.0 °F 41.1 °F 29.72 in NW 1.0 mph 4.0 mph 93% 0.05 in 26 W/m2
10:38 43.0 °F 41.1 °F 29.72 in NW 2.0 mph 4.0 mph 93% 0.10 in 33 W/m2
10:44 43.1 °F 41.2 °F 29.71 in NNW 1.0 mph 2.0 mph 93% 0.09 in 58 W/m2
10:50 43.3 °F 41.4 °F 29.71 in NW 1.0 mph 2.0 mph 93% 0.08 in 51 W/m2
10:56 43.3 °F 41.4 °F 29.70 in NNW 1.0 mph 5.0 mph 93% 0.08 in 51 W/m2
11:02 43.3 °F 41.4 °F 29.69 in NW 3.0 mph 4.0 mph 93% 0.05 in 72 W/m2
11:08 43.5 °F 41.9 °F 29.69 in North 2.0 mph 5.0 mph 94% 0.00 in 58 W/m2
11:14 43.6 °F 42.0 °F 29.69 in North 1.0 mph 2.0 mph 94% 0.00 in 40 W/m2
11:20 43.6 °F 42.0 °F 29.69 in North 1.0 mph 2.0 mph 94% 0.00 in 47 W/m2
11:26 43.8 °F 41.9 °F 29.68 in North 1.0 mph 2.0 mph 93% 0.00 in 49 W/m2
11:32 43.9 °F 42.0 °F 29.68 in North 1.0 mph 1.0 mph 93% 0.00 in 49 W/m2
11:38 44.0 °F 42.1 °F 29.68 in North 1.0 mph 1.0 mph 93% 0.00 in 63 W/m2
11:44 43.9 °F 42.0 °F 29.68 in NNW 1.0 mph 2.0 mph 93% 0.00 in 58 W/m2
11:50 44.1 °F 42.5 °F 29.68 in North 1.0 mph 1.0 mph 94% 0.00 in 42 W/m2
11:56 44.0 °F 42.4 °F 29.67 in North 1.0 mph 2.0 mph 94% 0.00 in 39 W/m2
12:02 44.1 °F 42.5 °F 29.67 in North 1.0 mph 2.0 mph 94% 0.00 in 39 W/m2
12:08 44.1 °F 42.5 °F 29.67 in Calm   2.0 mph 94% 0.00 in 30 W/m2
12:14 44.2 °F 42.6 °F 29.66 in Calm   1.0 mph 94% 0.00 in 30 W/m2
12:20 44.2 °F 42.6 °F 29.66 in Calm     94% 0.00 in 35 W/m2
12:26 44.3 °F 42.7 °F 29.66 in Calm     94% 0.00 in 28 W/m2
12:32 44.2 °F 42.6 °F 29.65 in Calm     94% 0.00 in 30 W/m2
12:38 44.3 °F 42.7 °F 29.65 in Calm     94% 0.00 in 40 W/m2
12:44 44.4 °F 42.8 °F 29.65 in Calm     94% 0.00 in 54 W/m2
12:50 44.4 °F 42.8 °F 29.64 in Calm   1.0 mph 94% 0.00 in 60 W/m2
12:56 44.5 °F 42.9 °F 29.64 in Calm   1.0 mph 94% 0.04 in 70 W/m2
13:02 44.6 °F 43.0 °F 29.63 in Calm   2.0 mph 94% 0.04 in 77 W/m2
13:08 44.7 °F 43.1 °F 29.63 in North 1.0 mph 2.0 mph 94% 0.04 in 56 W/m2
13:14 44.7 °F 43.1 °F 29.63 in North 1.0 mph 2.0 mph 94% 0.00 in 84 W/m2
13:20 44.7 °F 43.1 °F 29.63 in NNW 1.0 mph 1.0 mph 94% 0.00 in 56 W/m2
13:26 44.8 °F 43.2 °F 29.63 in NNW 1.0 mph 1.0 mph 94% 0.00 in 63 W/m2
13:32 44.9 °F 43.3 °F 29.62 in NNW 1.0 mph 1.0 mph 94% 0.00 in 86 W/m2
13:38 45.1 °F 43.5 °F 29.62 in NNW 1.0 mph 2.0 mph 94% 0.00 in 76 W/m2
13:44 45.1 °F 43.5 °F 29.61 in NNW 1.0 mph 2.0 mph 94% 0.00 in 67 W/m2
13:50 45.1 °F 43.5 °F 29.61 in Calm   1.0 mph 94% 0.00 in 49 W/m2
13:56 45.1 °F 43.5 °F 29.60 in Calm   2.0 mph 94% 0.00 in 58 W/m2
14:02 45.1 °F 43.5 °F 29.60 in NNW 1.0 mph 1.0 mph 94% 0.00 in 47 W/m2
14:08 45.2 °F 43.6 °F 29.60 in Calm   2.0 mph 94% 0.00 in 46 W/m2
14:14 45.4 °F 43.8 °F 29.59 in Calm     94% 0.00 in 39 W/m2
14:20 45.4 °F 43.8 °F 29.59 in Calm     94% 0.12 in 33 W/m2
14:26 45.3 °F 43.7 °F 29.59 in Calm     94% 0.06 in 37 W/m2
14:32 45.3 °F 43.7 °F 29.59 in Calm   2.0 mph 94% 0.06 in 39 W/m2
14:38 45.3 °F 43.7 °F 29.59 in Calm   2.0 mph 94% 0.05 in 39 W/m2
14:44 45.4 °F 43.8 °F 29.58 in Calm   1.0 mph 94% 0.05 in 37 W/m2
14:50 45.4 °F 43.8 °F 29.57 in Calm     94% 0.05 in 46 W/m2
14:56 45.5 °F 43.9 °F 29.57 in Calm     94% 0.00 in 44 W/m2
15:02 45.6 °F 44.0 °F 29.57 in Calm   2.0 mph 94% 0.00 in 42 W/m2
15:08 45.6 °F 44.0 °F 29.56 in NNW 1.0 mph 2.0 mph 94% 0.00 in 60 W/m2
15:14 45.7 °F 44.1 °F 29.56 in Calm   1.0 mph 94% 0.00 in 51 W/m2
15:20 45.8 °F 44.2 °F 29.55 in NNW 1.0 mph 3.0 mph 94% 0.00 in 54 W/m2
15:26 45.9 °F 44.3 °F 29.55 in NNW 1.0 mph 3.0 mph 94% 0.00 in 40 W/m2
15:32 45.9 °F 44.3 °F 29.56 in Calm     94% 0.00 in 11 W/m2
15:38 45.9 °F 44.3 °F 29.57 in Calm     94% 0.00 in 12 W/m2
15:44 45.9 °F 44.3 °F 29.57 in Calm   2.0 mph 94% 0.00 in 18 W/m2
15:50 46.0 °F 44.4 °F 29.56 in Calm     94% 0.22 in 26 W/m2
15:56 46.0 °F 44.4 °F 29.56 in Calm     94% 0.18 in 28 W/m2
16:02 46.1 °F 44.5 °F 29.56 in Calm   1.0 mph 94% 0.14 in 28 W/m2
16:08 46.2 °F 44.6 °F 29.56 in Calm   1.0 mph 94% 0.10 in 19 W/m2
16:14 46.2 °F 44.6 °F 29.55 in Calm     94% 0.05 in 16 W/m2
16:20 46.3 °F 44.7 °F 29.53 in Calm     94% 0.04 in 18 W/m2
16:26 46.3 °F 44.7 °F 29.53 in Calm     94% 0.04 in 14 W/m2
16:32 46.3 °F 44.7 °F 29.53 in Calm     94% 0.04 in 11 W/m2
16:38 46.3 °F 44.7 °F 29.52 in Calm     94% 0.00 in 11 W/m2
16:44 46.4 °F 44.8 °F 29.52 in Calm     94% 0.00 in 9 W/m2
16:50 46.4 °F 44.8 °F 29.52 in Calm   1.0 mph 94% 0.00 in 11 W/m2
16:56 46.4 °F 44.8 °F 29.51 in Calm   1.0 mph 94% 0.00 in 9 W/m2
16:58 46.5 °F 44.9 °F 29.51 in Calm   1.0 mph 94% 0.00 in 9 W/m2
17:04 46.5 °F 44.9 °F 29.50 in Calm   1.0 mph 94% 0.00 in 11 W/m2
17:10 46.6 °F 45.0 °F 29.50 in Calm   2.0 mph 94% 0.00 in 5 W/m2
17:16 46.6 °F 45.0 °F 29.50 in NNW 1.0 mph 2.0 mph 94% 0.00 in 0 W/m2
17:22 46.6 °F 45.0 °F 29.50 in NNW 1.0 mph 1.0 mph 94% 0.00 in 0 W/m2
17:28 46.6 °F 45.0 °F 29.49 in Calm   1.0 mph 94% 0.00 in 0 W/m2
17:34 46.7 °F 45.1 °F 29.49 in Calm     94% 0.00 in 0 W/m2
17:40 46.8 °F 45.2 °F 29.48 in Calm     94% 0.09 in 0 W/m2
17:46 46.8 °F 45.2 °F 29.48 in Calm   1.0 mph 94% 0.06 in 0 W/m2
17:52 46.9 °F 45.3 °F 29.48 in Calm     94% 0.10 in 0 W/m2
17:58 46.9 °F 45.3 °F 29.48 in Calm     94% 0.12 in 0 W/m2
18:04 46.9 °F 45.3 °F 29.47 in Calm   1.0 mph 94% 0.13 in 0 W/m2
18:10 46.9 °F 45.3 °F 29.47 in Calm   2.0 mph 94% 0.16 in 0 W/m2
18:16 46.9 °F 45.3 °F 29.46 in NNW 1.0 mph 2.0 mph 94% 0.17 in 0 W/m2
18:22 46.9 °F 45.3 °F 29.46 in NW 1.0 mph 3.0 mph 94% 0.14 in 0 W/m2
18:28 46.8 °F 45.2 °F 29.46 in NW 1.0 mph 3.0 mph 94% 0.14 in 0 W/m2
18:34 46.7 °F 45.1 °F 29.46 in NW 1.0 mph 2.0 mph 94% 0.13 in 0 W/m2
18:40 46.6 °F 45.0 °F 29.46 in NW 1.0 mph 1.0 mph 94% 0.20 in 0 W/m2
18:46 46.5 °F 44.9 °F 29.46 in NW 1.0 mph 3.0 mph 94% 0.17 in 0 W/m2
18:52 46.4 °F 44.8 °F 29.45 in NW 2.0 mph 3.0 mph 94% 0.15 in 0 W/m2
18:58 46.3 °F 44.7 °F 29.44 in North 2.0 mph 5.0 mph 94% 0.20 in 0 W/m2
19:04 46.2 °F 44.6 °F 29.44 in WNW 1.0 mph 3.0 mph 94% 0.11 in 0 W/m2
19:10 46.2 °F 44.6 °F 29.45 in NW 1.0 mph 1.0 mph 94% 0.10 in 0 W/m2
19:16 46.2 °F 44.6 °F 29.44 in NW 1.0 mph 2.0 mph 94% 0.07 in 0 W/m2
19:22 46.1 °F 44.5 °F 29.42 in NNW 2.0 mph 6.0 mph 94% 0.07 in 0 W/m2
19:28 46.0 °F 44.4 °F 29.42 in NW 4.0 mph 6.0 mph 94% 0.17 in 0 W/m2
19:34 46.0 °F 44.4 °F 29.42 in NW 3.0 mph 4.0 mph 94% 0.30 in 0 W/m2
19:40 46.0 °F 44.4 °F 29.42 in NW 2.0 mph 2.0 mph 94% 0.13 in 0 W/m2
19:46 45.9 °F 44.3 °F 29.42 in NNW 2.0 mph 2.0 mph 94% 0.10 in 0 W/m2
19:52 46.0 °F 44.4 °F 29.42 in NNW 1.0 mph 1.0 mph 94% 0.11 in 0 W/m2
19:58 46.0 °F 44.4 °F 29.42 in NNW 1.0 mph 1.0 mph 94% 0.11 in 0 W/m2
20:04 46.0 °F 44.4 °F 29.41 in NNW 1.0 mph 2.0 mph 94% 0.13 in 0 W/m2
20:10 46.0 °F 44.4 °F 29.40 in NNW 1.0 mph 3.0 mph 94% 0.17 in 0 W/m2
20:16 46.0 °F 44.4 °F 29.40 in WNW 2.0 mph 3.0 mph 94% 0.18 in 0 W/m2
20:18 45.9 °F 44.3 °F 29.40 in WNW 2.0 mph 3.0 mph 94% 0.12 in 0 W/m2
20:24 46.0 °F 44.4 °F 29.40 in WNW 1.0 mph 2.0 mph 94% 0.09 in 0 W/m2
20:30 46.0 °F 44.4 °F 29.40 in Calm   2.0 mph 94% 0.08 in 0 W/m2
20:36 46.0 °F 44.4 °F 29.40 in WNW 1.0 mph 2.0 mph 94% 0.07 in 0 W/m2
20:42 46.1 °F 44.5 °F 29.39 in NW 1.0 mph 2.0 mph 94% 0.19 in 0 W/m2
20:48 46.1 °F 44.5 °F 29.39 in NW 1.0 mph 5.0 mph 94% 0.16 in 0 W/m2
20:54 46.1 °F 44.5 °F 29.39 in NW 1.0 mph 3.0 mph 94% 0.12 in 0 W/m2
21:00 46.1 °F 44.5 °F 29.37 in NW 1.0 mph 1.0 mph 94% 0.10 in 0 W/m2
21:06 46.1 °F 44.5 °F 29.37 in NW 1.0 mph 3.0 mph 94% 0.09 in 0 W/m2
21:12 46.2 °F 44.6 °F 29.36 in NNW 2.0 mph 2.0 mph 94% 0.10 in 0 W/m2
21:18 46.2 °F 44.6 °F 29.36 in WNW 3.0 mph 7.0 mph 94% 0.09 in 0 W/m2
21:24 46.3 °F 44.7 °F 29.34 in NW 3.0 mph 3.0 mph 94% 0.07 in 0 W/m2
21:30 46.3 °F 44.7 °F 29.34 in NW 2.0 mph 2.0 mph 94% 0.07 in 0 W/m2
21:36 46.3 °F 44.7 °F 29.34 in NNW 2.0 mph 4.0 mph 94% 0.07 in 0 W/m2
21:42 46.4 °F 44.8 °F 29.33 in NNW 2.0 mph 2.0 mph 94% 0.06 in 0 W/m2
21:48 46.5 °F 44.9 °F 29.33 in WNW 2.0 mph 3.0 mph 94% 0.06 in 0 W/m2
21:54 46.5 °F 44.9 °F 29.33 in NW 1.0 mph 2.0 mph 94% 0.06 in 0 W/m2
22:00 46.6 °F 45.0 °F 29.32 in NNW 1.0 mph 1.0 mph 94% 0.09 in 0 W/m2
22:06 46.6 °F 45.0 °F 29.31 in NW 2.0 mph 7.0 mph 94% 0.09 in 0 W/m2
22:12 46.7 °F 45.1 °F 29.31 in NW 3.0 mph 3.0 mph 94% 0.11 in 0 W/m2
22:18 46.7 °F 45.1 °F 29.31 in NW 2.0 mph 4.0 mph 94% 0.15 in 0 W/m2
22:24 46.8 °F 45.2 °F 29.30 in NW 2.0 mph 4.0 mph 94% 0.13 in 0 W/m2
22:30 46.9 °F 45.3 °F 29.30 in WNW 2.0 mph 2.0 mph 94% 0.19 in 0 W/m2
22:36 47.0 °F 45.6 °F 29.29 in NW 2.0 mph 2.0 mph 95% 0.20 in 0 W/m2
22:42 47.1 °F 45.7 °F 29.29 in NW 2.0 mph 6.0 mph 95% 0.20 in 0 W/m2
22:48 47.2 °F 45.6 °F 29.28 in WNW 3.0 mph 6.0 mph 94% 0.14 in 0 W/m2
22:54 47.2 °F 45.6 °F 29.26 in NNW 2.0 mph 3.0 mph 94% 0.15 in 0 W/m2
23:00 47.4 °F 45.8 °F 29.26 in NW 2.0 mph 2.0 mph 94% 0.19 in 0 W/m2
23:06 47.4 °F 46.0 °F 29.26 in NNW 1.0 mph 2.0 mph 95% 0.15 in 0 W/m2
23:18 47.5 °F 46.1 °F 29.25 in NW 2.0 mph 4.0 mph 95% 0.23 in 0 W/m2
23:24 47.4 °F 46.0 °F 29.23 in WNW 2.0 mph 4.0 mph 95% 0.19 in 0 W/m2
23:28 47.4 °F 46.0 °F 29.23 in NW 3.0 mph 4.0 mph 95% 0.12 in 0 W/m2
23:32 47.4 °F 45.8 °F 29.23 in WNW 2.0 mph 3.0 mph 94% 0.12 in 0 W/m2
23:38 47.3 °F 45.7 °F 29.22 in WNW 2.0 mph 3.0 mph 94% 0.10 in 0 W/m2
23:50 47.3 °F 45.7 °F 29.20 in NW 2.0 mph 2.0 mph 94% 0.13 in 0 W/m2
23:56 47.2 °F 45.6 °F 29.19 in NW 3.0 mph 6.0 mph 94% 0.21 in 0 W/m2
Country Meadow, Clay, NY, USA
Compliments of Weather Underground - 2 mb